createdAt,value
2022-10-18T00:00:22.689Z,13.54
2022-10-18T00:03:10.675Z,13.53
2022-10-18T00:05:38.381Z,13.52
2022-10-18T00:08:05.917Z,13.49
2022-10-18T00:10:33.493Z,13.47
2022-10-18T00:13:01.276Z,13.45
2022-10-18T00:15:28.702Z,13.43
2022-10-18T00:17:56.264Z,13.41
2022-10-18T00:20:23.693Z,13.39
2022-10-18T00:22:51.369Z,13.38
2022-10-18T00:25:19.551Z,13.35
2022-10-18T00:28:01.376Z,13.33
2022-10-18T00:30:28.569Z,13.31
2022-10-18T00:32:55.954Z,13.28
2022-10-18T00:35:23.647Z,13.27
2022-10-18T00:38:05.302Z,13.24
2022-10-18T00:40:32.694Z,13.22
2022-10-18T00:42:59.863Z,13.21
2022-10-18T00:45:27.667Z,13.18
2022-10-18T00:47:59.669Z,13.14
2022-10-18T00:50:32.135Z,13.10
2022-10-18T00:53:04.368Z,13.09
2022-10-18T00:55:33.742Z,13.08
2022-10-18T00:58:02.029Z,13.07
2022-10-18T01:00:29.449Z,13.07
2022-10-18T01:02:58.835Z,13.05
2022-10-18T01:05:26.694Z,13.02
2022-10-18T01:08:15.886Z,12.99
2022-10-18T01:11:22.445Z,12.97
2022-10-18T01:14:24.111Z,12.93
2022-10-18T01:17:11.075Z,12.91
2022-10-18T01:20:16.235Z,12.89
2022-10-18T01:23:08.044Z,12.87
2022-10-18T01:25:55.985Z,12.81
2022-10-18T01:28:40.643Z,12.78
2022-10-18T01:31:35.012Z,12.76
2022-10-18T01:34:07.903Z,12.75
2022-10-18T01:36:47.575Z,12.73
2022-10-18T01:39:34.579Z,12.70
2022-10-18T01:42:07.277Z,12.69
2022-10-18T01:44:36.466Z,12.66
2022-10-18T01:47:06.472Z,12.65
2022-10-18T01:49:34.056Z,12.62
2022-10-18T01:52:01.513Z,12.59
2022-10-18T01:54:42.908Z,12.56
2022-10-18T01:57:25.707Z,12.52
2022-10-18T01:59:59.520Z,12.46
2022-10-18T02:02:53.630Z,12.44
2022-10-18T02:05:48.784Z,12.42
2022-10-18T02:08:33.512Z,12.41
2022-10-18T02:11:08.333Z,12.41
2022-10-18T02:13:41.537Z,12.39
2022-10-18T02:16:34.391Z,12.36
2022-10-18T02:19:40.642Z,12.35
2022-10-18T02:22:11.222Z,12.34
2022-10-18T02:24:43.317Z,12.31
2022-10-18T02:27:25.600Z,12.26
2022-10-18T02:29:53.851Z,12.22
2022-10-18T02:32:29.326Z,12.21
2022-10-18T02:35:04.439Z,12.21
2022-10-18T02:37:39.072Z,12.21
2022-10-18T02:40:09.472Z,12.21
2022-10-18T02:42:50.085Z,12.21
2022-10-18T02:45:17.824Z,12.20
2022-10-18T02:47:45.331Z,12.19
2022-10-18T02:50:14.156Z,12.18
2022-10-18T02:52:41.368Z,12.17
2022-10-18T02:55:23.247Z,12.17
2022-10-18T02:57:50.779Z,12.15
2022-10-18T03:00:18.607Z,12.15
2022-10-18T03:02:48.639Z,12.11
2022-10-18T03:05:16.224Z,12.07
2022-10-18T03:07:43.579Z,12.05
2022-10-18T03:10:11.093Z,12.03
2022-10-18T03:12:38.471Z,12.03
2022-10-18T03:15:06.317Z,12.03
2022-10-18T03:17:48.054Z,12.02
2022-10-18T03:20:15.610Z,12.01
2022-10-18T03:22:43.050Z,12.01
2022-10-18T03:25:10.385Z,12.01
2022-10-18T03:27:37.852Z,12.00
2022-10-18T03:30:06.012Z,11.98
2022-10-18T03:32:33.849Z,11.96
2022-10-18T03:35:01.468Z,11.93
2022-10-18T03:37:28.996Z,11.92
2022-10-18T03:39:56.504Z,11.92
2022-10-18T03:42:23.788Z,11.93
2022-10-18T03:44:51.334Z,11.93
2022-10-18T03:47:18.949Z,11.94
2022-10-18T03:49:46.360Z,11.95
2022-10-18T03:52:13.792Z,11.94
2022-10-18T03:54:41.029Z,11.93
2022-10-18T03:57:08.447Z,11.92
2022-10-18T03:59:36.365Z,11.92
2022-10-18T04:02:04.783Z,11.91
2022-10-18T04:04:32.091Z,11.90
2022-10-18T04:06:59.610Z,11.90
2022-10-18T04:09:26.810Z,11.91
2022-10-18T04:11:54.170Z,11.91
2022-10-18T04:14:21.649Z,11.90
2022-10-18T04:16:49.346Z,11.88
2022-10-18T04:19:16.852Z,11.85
2022-10-18T04:21:44.447Z,11.83
2022-10-18T04:24:11.821Z,11.81
2022-10-18T04:26:39.321Z,11.78
2022-10-18T04:29:06.648Z,11.77
2022-10-18T04:31:34.160Z,11.76
2022-10-18T04:34:02.402Z,11.77
2022-10-18T04:36:30.995Z,11.78
2022-10-18T04:38:58.446Z,11.79
2022-10-18T04:41:25.786Z,11.80
2022-10-18T04:43:53.350Z,11.82
2022-10-18T04:46:21.004Z,11.84
2022-10-18T04:48:48.576Z,11.86
2022-10-18T04:51:16.144Z,11.88
2022-10-18T04:53:43.769Z,11.91
2022-10-18T04:56:11.462Z,11.93
2022-10-18T04:58:38.720Z,11.95
2022-10-18T05:01:07.389Z,11.97
2022-10-18T05:03:35.290Z,11.98
2022-10-18T05:06:03.727Z,12.01
2022-10-18T05:08:33.219Z,12.03
2022-10-18T05:11:01.079Z,12.05
2022-10-18T05:13:29.790Z,12.06
2022-10-18T05:15:58.994Z,12.08
2022-10-18T05:18:26.925Z,12.09
2022-10-18T05:20:54.356Z,12.10
2022-10-18T05:23:21.837Z,12.11
2022-10-18T05:25:49.210Z,12.13
2022-10-18T05:28:38.174Z,12.13
2022-10-18T05:31:06.032Z,12.15
2022-10-18T05:33:47.640Z,12.15
2022-10-18T05:36:15.491Z,12.15
2022-10-18T05:38:44.832Z,12.17
2022-10-18T05:41:12.462Z,12.19
2022-10-18T05:43:40.602Z,12.21
2022-10-18T05:46:15.513Z,12.22
2022-10-18T05:48:44.513Z,12.25
2022-10-18T05:51:12.010Z,12.29
2022-10-18T05:53:39.325Z,12.32
2022-10-18T05:56:07.258Z,12.35
2022-10-18T05:58:34.774Z,12.36
2022-10-18T06:01:03.457Z,12.37
2022-10-18T06:03:31.517Z,12.38
2022-10-18T06:06:09.780Z,12.40
2022-10-18T06:08:38.368Z,12.46
2022-10-18T06:11:17.121Z,12.52
2022-10-18T06:13:47.093Z,12.59
2022-10-18T06:16:16.076Z,12.65
2022-10-18T06:18:46.952Z,12.69
2022-10-18T06:21:14.406Z,12.76
2022-10-18T06:23:41.691Z,12.81
2022-10-18T06:26:11.270Z,12.85
2022-10-18T06:28:38.759Z,12.91
2022-10-18T06:31:06.592Z,12.97
2022-10-18T06:33:36.618Z,13.03
2022-10-18T06:36:07.932Z,13.08
2022-10-18T06:38:35.832Z,13.12
2022-10-18T06:41:19.135Z,13.17
2022-10-18T06:44:06.708Z,13.21
2022-10-18T06:46:34.111Z,13.26
2022-10-18T06:49:01.495Z,13.31
2022-10-18T06:51:29.036Z,13.37
2022-10-18T06:54:17.003Z,13.47
2022-10-18T06:56:44.085Z,13.59
2022-10-18T06:59:11.891Z,13.63
2022-10-18T07:01:39.384Z,13.65
2022-10-18T07:04:06.813Z,13.68
2022-10-18T07:06:34.172Z,13.73
2022-10-18T07:09:02.786Z,13.75
2022-10-18T07:11:30.571Z,13.80
2022-10-18T07:14:03.827Z,13.85
2022-10-18T07:16:33.857Z,13.90
2022-10-18T07:19:02.132Z,13.94
2022-10-18T07:21:29.469Z,13.99
2022-10-18T07:23:57.179Z,14.01
2022-10-18T07:26:33.417Z,14.04
2022-10-18T07:29:15.110Z,14.08
2022-10-18T07:31:42.485Z,14.12
2022-10-18T07:34:24.295Z,14.18
2022-10-18T07:36:51.418Z,14.22
2022-10-18T07:39:18.587Z,14.25
2022-10-18T07:41:46.099Z,14.29
2022-10-18T07:44:13.717Z,14.32
2022-10-18T07:46:41.208Z,14.35
2022-10-18T07:49:08.662Z,14.39
2022-10-18T07:51:36.007Z,14.44
2022-10-18T07:54:03.531Z,14.52
2022-10-18T07:56:31.162Z,14.58
2022-10-18T07:58:58.816Z,14.64
2022-10-18T08:01:26.364Z,14.69
2022-10-18T08:03:54.217Z,14.66
2022-10-18T08:06:22.438Z,14.65
2022-10-18T08:08:50.154Z,14.69
2022-10-18T08:11:20.571Z,14.76
2022-10-18T08:13:48.613Z,14.85
2022-10-18T08:16:20.071Z,14.93
2022-10-18T08:18:48.048Z,15.00
2022-10-18T08:21:17.565Z,15.06
2022-10-18T08:23:45.527Z,15.12
2022-10-18T08:26:16.481Z,15.16
2022-10-18T08:28:53.577Z,15.17
2022-10-18T08:31:26.317Z,15.19
2022-10-18T08:33:56.860Z,15.15
2022-10-18T08:36:24.503Z,15.05
2022-10-18T08:38:52.092Z,14.95
2022-10-18T08:41:36.977Z,14.91
2022-10-18T08:44:13.229Z,14.92
2022-10-18T08:46:45.804Z,14.92
2022-10-18T08:50:00.385Z,14.89
2022-10-18T08:52:33.192Z,14.88
2022-10-18T08:55:02.529Z,14.87
2022-10-18T08:57:32.612Z,14.89
2022-10-18T09:00:05.861Z,14.93
2022-10-18T09:02:49.319Z,14.94
2022-10-18T09:05:31.368Z,14.96
2022-10-18T09:08:36.976Z,14.98
2022-10-18T09:11:32.228Z,15.01
2022-10-18T09:14:23.711Z,15.02
2022-10-18T09:17:16.989Z,15.04
2022-10-18T09:20:22.158Z,15.09
2022-10-18T09:23:19.641Z,15.15
2022-10-18T09:25:53.355Z,15.25
2022-10-18T09:28:39.293Z,15.31
2022-10-18T09:31:32.338Z,15.34
2022-10-18T09:34:22.679Z,15.40
2022-10-18T09:36:52.350Z,15.44
2022-10-18T09:39:30.276Z,15.45
2022-10-18T09:42:07.012Z,15.45
2022-10-18T09:45:00.109Z,15.46
2022-10-18T09:47:37.898Z,15.51
2022-10-18T09:50:54.696Z,15.51
2022-10-18T09:53:37.018Z,15.51
2022-10-18T09:56:29.952Z,15.54
2022-10-18T09:59:51.009Z,15.58
2022-10-18T10:02:21.778Z,15.60
2022-10-18T10:04:50.717Z,15.62
2022-10-18T10:07:27.716Z,15.60
2022-10-18T10:10:17.805Z,15.61
2022-10-18T10:12:45.644Z,15.62
2022-10-18T10:15:29.505Z,15.65
2022-10-18T10:18:14.383Z,15.70
2022-10-18T10:20:46.303Z,15.74
2022-10-18T10:23:21.088Z,15.76
2022-10-18T10:26:19.992Z,15.76
2022-10-18T10:28:48.408Z,15.72
2022-10-18T10:31:31.011Z,15.67
2022-10-18T10:34:21.686Z,15.63
2022-10-18T10:36:52.151Z,15.55
2022-10-18T10:39:21.794Z,15.46
2022-10-18T10:41:56.738Z,15.42
2022-10-18T10:44:28.411Z,15.41
2022-10-18T10:46:56.857Z,15.38
2022-10-18T10:49:46.052Z,15.34
2022-10-18T10:52:27.285Z,15.34
2022-10-18T10:55:34.918Z,15.29
2022-10-18T10:58:03.113Z,15.27
2022-10-18T11:00:44.087Z,15.23
2022-10-18T11:03:29.126Z,15.19
2022-10-18T11:06:00.391Z,15.14
2022-10-18T11:08:41.109Z,15.13
2022-10-18T11:11:23.295Z,15.14
2022-10-18T11:14:07.254Z,15.15
2022-10-18T11:17:06.905Z,15.12
2022-10-18T11:20:10.636Z,15.10
2022-10-18T11:23:06.773Z,15.13
2022-10-18T11:25:58.138Z,15.15
2022-10-18T11:28:35.251Z,15.19
2022-10-18T11:31:14.578Z,15.21
2022-10-18T11:34:09.699Z,15.21
2022-10-18T11:37:23.041Z,15.18
2022-10-18T11:39:54.778Z,15.16
2022-10-18T11:43:00.595Z,15.11
2022-10-18T11:46:02.464Z,15.10
2022-10-18T11:48:35.677Z,15.09
2022-10-18T11:51:06.083Z,15.13
2022-10-18T11:53:52.204Z,15.14
2022-10-18T11:56:38.274Z,15.13
2022-10-18T11:59:33.512Z,15.10
2022-10-18T12:02:41.628Z,15.07
2022-10-18T12:05:26.161Z,15.05
2022-10-18T12:08:05.159Z,15.04
2022-10-18T12:10:52.771Z,15.03
2022-10-18T12:13:51.097Z,15.06
2022-10-18T12:16:39.014Z,15.06
2022-10-18T12:19:28.159Z,15.06
2022-10-18T12:22:13.318Z,15.07
2022-10-18T12:24:41.756Z,15.06
2022-10-18T12:27:13.249Z,15.06
2022-10-18T12:29:50.194Z,15.03
2022-10-18T12:32:24.364Z,15.01
2022-10-18T12:35:06.254Z,15.01
2022-10-18T12:37:36.806Z,14.98
2022-10-18T12:40:13.445Z,14.95
2022-10-18T12:42:47.407Z,14.91
2022-10-18T12:45:46.272Z,14.87
2022-10-18T12:48:28.796Z,14.83
2022-10-18T12:51:20.770Z,14.77
2022-10-18T12:53:52.606Z,14.74
2022-10-18T12:56:44.026Z,14.69
2022-10-18T12:59:14.638Z,14.62
2022-10-18T13:01:51.329Z,14.55
2022-10-18T13:04:32.172Z,14.50
2022-10-18T13:07:22.566Z,14.43
2022-10-18T13:10:12.430Z,14.38
2022-10-18T13:13:38.633Z,14.29
2022-10-18T13:16:27.982Z,14.18
2022-10-18T13:19:08.982Z,14.11
2022-10-18T13:22:08.481Z,14.06
2022-10-18T13:25:10.438Z,14.02
2022-10-18T13:28:08.055Z,13.95
2022-10-18T13:31:56.445Z,13.90
2022-10-18T13:36:07.565Z,13.84
2022-10-18T13:39:06.095Z,13.79
2022-10-18T13:41:45.756Z,13.76
2022-10-18T13:44:37.108Z,13.74
2022-10-18T13:47:04.349Z,13.73
2022-10-18T13:49:58.527Z,13.72
2022-10-18T13:52:49.576Z,13.71
2022-10-18T13:55:41.895Z,13.69
2022-10-18T13:58:22.981Z,13.70
2022-10-18T14:01:21.687Z,13.71
2022-10-18T14:03:59.077Z,13.72
2022-10-18T14:06:43.348Z,13.70
2022-10-18T14:09:43.784Z,13.69
2022-10-18T14:12:45.666Z,13.68
2022-10-18T14:15:23.770Z,13.65
2022-10-18T14:18:18.550Z,13.62
2022-10-18T14:21:12.208Z,13.61
2022-10-18T14:23:44.384Z,13.57
2022-10-18T14:26:18.283Z,13.54
2022-10-18T14:29:01.423Z,13.52
2022-10-18T14:31:29.703Z,13.49
2022-10-18T14:33:58.974Z,13.48
2022-10-18T14:36:35.829Z,13.47
2022-10-18T14:39:06.984Z,13.48
2022-10-18T14:41:41.029Z,13.46
2022-10-18T14:44:14.644Z,13.47
2022-10-18T14:46:50.113Z,13.47
2022-10-18T14:49:19.935Z,13.48
2022-10-18T14:51:51.065Z,13.49
2022-10-18T14:54:25.093Z,13.52
2022-10-18T14:56:55.967Z,13.54
2022-10-18T14:59:30.256Z,13.56
2022-10-18T15:02:23.087Z,13.54
2022-10-18T15:05:21.603Z,13.54
2022-10-18T15:07:50.969Z,13.55
2022-10-18T15:10:28.019Z,13.56
2022-10-18T15:13:10.880Z,13.56
2022-10-18T15:15:40.141Z,13.57
2022-10-18T15:18:18.877Z,13.59
2022-10-18T15:20:46.100Z,13.62
2022-10-18T15:23:30.850Z,13.62
2022-10-18T15:26:14.832Z,13.60
2022-10-18T15:29:01.466Z,13.56
2022-10-18T15:31:34.978Z,13.54
2022-10-18T15:34:25.990Z,13.53
2022-10-18T15:36:56.639Z,13.52
2022-10-18T15:39:30.773Z,13.49
2022-10-18T15:42:01.103Z,13.48
2022-10-18T15:44:46.304Z,13.48
2022-10-18T15:47:15.654Z,13.49
2022-10-18T15:49:45.762Z,13.48
2022-10-18T15:52:39.193Z,13.48
2022-10-18T15:55:29.733Z,13.44
2022-10-18T15:58:12.072Z,13.41
2022-10-18T16:00:39.666Z,13.37
2022-10-18T16:03:08.718Z,13.36
2022-10-18T16:05:37.288Z,13.36
2022-10-18T16:08:04.753Z,13.36
2022-10-18T16:10:31.948Z,13.35
2022-10-18T16:12:59.342Z,13.32
2022-10-18T16:15:26.546Z,13.30
2022-10-18T16:17:53.872Z,13.25
2022-10-18T16:20:24.383Z,13.21
2022-10-18T16:22:52.083Z,13.18
2022-10-18T16:25:19.488Z,13.15
2022-10-18T16:27:46.910Z,13.14
2022-10-18T16:30:18.197Z,13.12
2022-10-18T16:32:46.088Z,13.14
2022-10-18T16:35:28.299Z,13.16
2022-10-18T16:37:56.187Z,13.18
2022-10-18T16:40:41.102Z,13.21
2022-10-18T16:43:08.870Z,13.20
2022-10-18T16:45:36.392Z,13.20
2022-10-18T16:48:04.409Z,13.20
2022-10-18T16:50:35.298Z,13.19
2022-10-18T16:53:02.933Z,13.18
2022-10-18T16:55:30.229Z,13.18
2022-10-18T16:57:57.722Z,13.17
2022-10-18T17:00:24.909Z,13.15
2022-10-18T17:02:51.980Z,13.12
2022-10-18T17:05:19.672Z,13.11
2022-10-18T17:07:47.743Z,13.10
2022-10-18T17:10:18.879Z,13.09
2022-10-18T17:12:46.137Z,13.06
2022-10-18T17:15:13.308Z,13.03
2022-10-18T17:17:40.664Z,13.00
2022-10-18T17:20:08.706Z,12.98
2022-10-18T17:22:36.287Z,12.95
2022-10-18T17:25:04.244Z,12.94
2022-10-18T17:27:32.316Z,12.92
2022-10-18T17:30:14.752Z,12.89
2022-10-18T17:32:44.131Z,12.90
2022-10-18T17:35:12.385Z,12.92
2022-10-18T17:37:44.047Z,12.92
2022-10-18T17:40:13.649Z,12.92
2022-10-18T17:42:40.927Z,12.93
2022-10-18T17:45:09.123Z,12.94
2022-10-18T17:47:50.775Z,12.95
2022-10-18T17:50:18.447Z,12.95
2022-10-18T17:52:46.910Z,12.95
2022-10-18T17:55:15.184Z,12.95
2022-10-18T17:57:43.300Z,12.92
2022-10-18T18:00:13.211Z,12.91
2022-10-18T18:02:42.212Z,12.89
2022-10-18T18:05:10.125Z,12.86
2022-10-18T18:07:37.434Z,12.85
2022-10-18T18:10:05.201Z,12.81
2022-10-18T18:12:47.395Z,12.78
2022-10-18T18:15:14.650Z,12.76
2022-10-18T18:17:58.100Z,12.75
2022-10-18T18:20:26.170Z,12.74
2022-10-18T18:22:53.926Z,12.72
2022-10-18T18:25:21.341Z,12.71
2022-10-18T18:27:48.456Z,12.70
2022-10-18T18:30:17.584Z,12.66
2022-10-18T18:33:05.196Z,12.62
2022-10-18T18:35:32.561Z,12.58
2022-10-18T18:37:59.948Z,12.57
2022-10-18T18:40:27.454Z,12.56
2022-10-18T18:43:12.072Z,12.55
2022-10-18T18:45:50.079Z,12.57
2022-10-18T18:48:19.767Z,12.58
2022-10-18T18:50:51.604Z,12.59
2022-10-18T18:53:19.256Z,12.59
2022-10-18T18:55:48.061Z,12.58
2022-10-18T18:58:15.452Z,12.57
2022-10-18T19:00:44.511Z,12.56
2022-10-18T19:03:12.365Z,12.55
2022-10-18T19:05:39.505Z,12.55
2022-10-18T19:08:06.492Z,12.54
2022-10-18T19:10:33.485Z,12.52
2022-10-18T19:13:00.867Z,12.49
2022-10-18T19:15:30.010Z,12.47
2022-10-18T19:17:59.113Z,12.45
2022-10-18T19:20:26.324Z,12.42
2022-10-18T19:22:53.551Z,12.41
2022-10-18T19:25:22.251Z,12.38
2022-10-18T19:27:52.003Z,12.33
2022-10-18T19:30:19.282Z,12.28
2022-10-18T19:32:46.479Z,12.25
2022-10-18T19:35:28.011Z,12.21
2022-10-18T19:37:55.162Z,12.19
2022-10-18T19:40:22.573Z,12.15
2022-10-18T19:42:49.634Z,12.14
2022-10-18T19:45:16.774Z,12.12
2022-10-18T19:47:43.989Z,12.09
2022-10-18T19:50:11.146Z,12.04
2022-10-18T19:52:38.088Z,12.02
2022-10-18T19:55:05.725Z,11.98
2022-10-18T19:57:32.928Z,11.94
2022-10-18T20:00:00.944Z,11.90
2022-10-18T20:02:38.677Z,11.87
2022-10-18T20:05:06.280Z,11.86
2022-10-18T20:07:33.801Z,11.82
2022-10-18T20:10:01.054Z,11.80
2022-10-18T20:12:28.728Z,11.76
2022-10-18T20:14:56.170Z,11.72
2022-10-18T20:17:23.536Z,11.67
2022-10-18T20:19:50.931Z,11.59
2022-10-18T20:22:18.274Z,11.51
2022-10-18T20:24:46.163Z,11.43
2022-10-18T20:27:13.937Z,11.36
2022-10-18T20:29:41.302Z,11.30
2022-10-18T20:32:09.052Z,11.24
2022-10-18T20:34:36.602Z,11.18
2022-10-18T20:37:03.799Z,11.13
2022-10-18T20:39:31.343Z,11.08
2022-10-18T20:41:59.016Z,11.02
2022-10-18T20:44:26.738Z,10.96
2022-10-18T20:46:54.162Z,10.92
2022-10-18T20:49:22.098Z,10.88
2022-10-18T20:51:49.576Z,10.85
2022-10-18T20:54:16.603Z,10.82
2022-10-18T20:56:43.647Z,10.78
2022-10-18T20:59:11.147Z,10.75
2022-10-18T21:01:39.408Z,10.71
2022-10-18T21:04:09.466Z,10.68
2022-10-18T21:06:42.572Z,10.64
2022-10-18T21:09:16.566Z,10.61
2022-10-18T21:11:46.273Z,10.56
2022-10-18T21:14:18.051Z,10.52
2022-10-18T21:16:46.682Z,10.47
2022-10-18T21:19:17.226Z,10.43
2022-10-18T21:21:47.368Z,10.39
2022-10-18T21:24:14.917Z,10.34
2022-10-18T21:26:43.086Z,10.29
2022-10-18T21:29:12.253Z,10.23
2022-10-18T21:31:42.096Z,10.17
2022-10-18T21:34:15.401Z,10.10
2022-10-18T21:36:44.644Z,10.05
2022-10-18T21:39:15.728Z,9.99
2022-10-18T21:41:44.158Z,9.95
2022-10-18T21:44:12.354Z,9.90
2022-10-18T21:46:42.573Z,9.85
2022-10-18T21:49:10.905Z,9.80
2022-10-18T21:51:38.608Z,9.77
2022-10-18T21:54:11.180Z,9.73
2022-10-18T21:56:52.678Z,9.69
2022-10-18T21:59:20.111Z,9.64
2022-10-18T22:01:47.549Z,9.60
2022-10-18T22:04:27.146Z,9.58
2022-10-18T22:06:54.564Z,9.56
2022-10-18T22:09:22.101Z,9.57
2022-10-18T22:11:52.032Z,9.58
2022-10-18T22:14:19.909Z,9.58
2022-10-18T22:16:47.152Z,9.57
2022-10-18T22:19:14.991Z,9.56
2022-10-18T22:21:42.454Z,9.54
2022-10-18T22:24:09.895Z,9.52
2022-10-18T22:26:51.658Z,9.51
2022-10-18T22:29:33.449Z,9.50
2022-10-18T22:32:01.328Z,9.50
2022-10-18T22:34:28.619Z,9.49
2022-10-18T22:37:10.273Z,9.47
2022-10-18T22:39:37.782Z,9.47
2022-10-18T22:42:05.691Z,9.46
2022-10-18T22:44:35.794Z,9.47
2022-10-18T22:47:03.170Z,9.49
2022-10-18T22:49:30.682Z,9.49
2022-10-18T22:51:57.999Z,9.49
2022-10-18T22:54:25.331Z,9.49
2022-10-18T22:56:52.810Z,9.49
2022-10-18T22:59:20.460Z,9.51
2022-10-18T23:01:47.687Z,9.53
2022-10-18T23:04:15.198Z,9.54
2022-10-18T23:06:42.803Z,9.55
2022-10-18T23:09:11.044Z,9.57
2022-10-18T23:11:38.489Z,9.58
2022-10-18T23:14:06.756Z,9.59
2022-10-18T23:16:34.263Z,9.59
2022-10-18T23:19:16.594Z,9.59
2022-10-18T23:21:58.217Z,9.59
2022-10-18T23:24:25.844Z,9.59
2022-10-18T23:26:53.351Z,9.59
2022-10-18T23:29:20.804Z,9.59
2022-10-18T23:31:48.245Z,9.60
2022-10-18T23:34:15.873Z,9.60
2022-10-18T23:39:11.861Z,9.57
2022-10-18T23:41:39.303Z,9.57
2022-10-18T23:44:08.493Z,9.56
2022-10-18T23:46:36.104Z,9.55
2022-10-18T23:49:03.462Z,9.52
2022-10-18T23:51:30.984Z,9.49
2022-10-18T23:53:58.508Z,9.48
2022-10-18T23:56:25.930Z,9.46
2022-10-18T23:58:53.407Z,9.44
